Time;durP1;ratioP1;P1;durP2;ratioP2;P2;SDS_P1;SDS_P2;PMS_P1;PMS_P2;Temp;Humidity;BMP_temperature;BMP_pressure;BME280_temperature;BME280_humidity;BME280_pressure;Samples;Min_cycle;Max_cycle;Signal;HPM_P1;HPM_P2
2022/12/04 00:02:10;;;;;;;10.95;2.83;;;;;;;7.39;100.00;102231.34;4999559;28;20046;-83
2022/12/04 00:04:37;;;;;;;9.75;2.60;;;;;;;7.56;100.00;102223.53;5002074;28;20062;-82
2022/12/04 00:07:04;;;;;;;6.93;2.55;;;;;;;7.49;100.00;102210.50;5005125;28;20053;-83
2022/12/04 00:09:30;;;;;;;13.80;2.58;;;;;;;7.51;100.00;102229.63;5004543;28;20485;-83
2022/12/04 00:11:57;;;;;;;12.68;3.53;;;;;;;7.43;100.00;102223.53;5007275;28;20120;-83
2022/12/04 00:14:24;;;;;;;11.38;2.78;;;;;;;7.21;100.00;102187.09;5007200;28;20380;-82
2022/12/04 00:16:51;;;;;;;9.13;2.20;;;;;;;7.49;100.00;102231.34;5006780;28;20053;-83
2022/12/04 00:19:18;;;;;;;6.65;1.80;;;;;;;7.38;100.00;102215.72;4999063;28;20089;-82
2022/12/04 00:21:45;;;;;;;11.00;2.03;;;;;;;7.40;100.00;102227.88;5008056;28;20042;-83
2022/12/04 00:24:11;;;;;;;11.57;2.53;;;;;;;7.39;100.00;102225.28;5002885;28;20122;-82
2022/12/04 00:26:38;;;;;;;9.25;2.72;;;;;;;7.16;100.00;102209.66;5029372;28;20100;-83
2022/12/04 00:29:05;;;;;;;9.02;2.47;;;;;;;7.33;100.00;102220.06;5010862;28;20104;-83
2022/12/04 00:31:32;;;;;;;10.88;2.30;;;;;;;7.40;100.00;102211.38;5012484;28;20096;-82
2022/12/04 00:34:00;;;;;;;8.05;2.10;;;;;;;7.53;100.00;102227.88;5009917;28;20081;-82
2022/12/04 00:36:28;;;;;;;5.82;2.00;;;;;;;7.37;100.00;102224.41;5011708;28;20062;-83
2022/12/04 00:38:57;;;;;;;8.40;2.20;;;;;;;7.30;100.00;102204.44;5003828;28;20104;-83
2022/12/04 00:41:26;;;;;;;8.20;1.90;;;;;;;7.28;100.00;102211.38;5002197;28;20041;-83
2022/12/04 00:43:53;;;;;;;7.35;1.80;;;;;;;7.20;100.00;102212.25;5011424;28;20868;-83
2022/12/04 00:46:21;;;;;;;5.40;1.70;;;;;;;7.04;100.00;102208.75;5006441;28;20476;-82
2022/12/04 00:48:48;;;;;;;6.88;1.92;;;;;;;6.93;100.00;102199.22;5002323;28;20081;-82
2022/12/04 00:51:18;;;;;;;8.30;1.95;;;;;;;7.04;100.00;102219.19;5010904;28;20049;-82
2022/12/04 00:53:46;;;;;;;7.60;2.05;;;;;;;7.08;100.00;102183.59;5008344;28;20463;-82
2022/12/04 00:56:16;;;;;;;7.18;1.67;;;;;;;7.25;100.00;102219.22;4999188;28;20112;-81
2022/12/04 00:58:44;;;;;;;6.28;2.00;;;;;;;7.15;100.00;102190.56;5007353;28;20049;-82
2022/12/04 01:01:14;;;;;;;9.05;2.00;;;;;;;7.23;100.00;102208.78;5007435;28;20046;-82
2022/12/04 01:03:42;;;;;;;10.50;2.38;;;;;;;7.26;100.00;102213.09;5006887;28;20054;-82
2022/12/04 01:06:20;;;;;;;7.07;1.92;;;;;;;7.26;100.00;102207.91;5010667;28;20053;-82
2022/12/04 01:08:48;;;;;;;7.95;1.90;;;;;;;7.17;100.00;102208.75;5010599;28;20104;-82
2022/12/04 01:11:16;;;;;;;8.38;2.10;;;;;;;7.16;100.00;102214.88;5010323;28;20042;-82
2022/12/04 01:13:43;;;;;;;10.27;2.35;;;;;;;7.17;100.00;102213.97;5001460;28;20052;-82
2022/12/04 01:16:23;;;;;;;6.65;1.48;;;;;;;7.25;100.00;102216.59;5004912;28;20058;-82
2022/12/04 01:18:50;;;;;;;9.18;2.70;;;;;;;7.13;100.00;102205.28;5011739;28;20054;-83
2022/12/04 01:21:17;;;;;;;7.57;2.08;;;;;;;7.28;100.00;102190.53;5010252;28;20476;-83
2022/12/04 01:23:44;;;;;;;6.10;1.80;;;;;;;7.30;100.00;102196.63;5011847;28;20041;-83
2022/12/04 01:26:11;;;;;;;8.60;2.38;;;;;;;7.10;100.00;102174.06;5011088;28;20118;-82
2022/12/04 01:28:38;;;;;;;7.35;2.17;;;;;;;7.28;100.00;102200.94;5011400;28;20463;-82
2022/12/04 01:31:12;;;;;;;12.38;2.40;;;;;;;7.23;100.00;102206.19;5011846;28;20454;-83
2022/12/04 01:33:39;;;;;;;12.48;3.45;;;;;;;6.98;100.00;102205.31;5002260;28;20100;-83
2022/12/04 01:36:09;;;;;;;8.32;2.65;;;;;;;6.99;100.00;102217.44;5005494;28;20049;-82
2022/12/04 01:38:37;;;;;;;6.35;2.15;;;;;;;6.89;100.00;102220.91;5011453;28;20060;-83
2022/12/04 01:41:04;;;;;;;13.63;2.67;;;;;;;7.00;100.00;102203.56;5012006;28;20050;-83
2022/12/04 01:43:33;;;;;;;9.00;3.92;;;;;;;6.92;100.00;102213.97;5011006;28;20050;-83
2022/12/04 01:46:01;;;;;;;6.53;1.80;;;;;;;7.12;100.00;102215.72;5010749;28;20042;-83
2022/12/04 01:48:32;;;;;;;11.25;2.30;;;;;;;6.74;100.00;102180.09;5011708;28;20129;-83
2022/12/04 01:51:13;;;;;;;9.40;2.10;;;;;;;7.01;100.00;102215.69;5001033;28;20049;-83
2022/12/04 01:53:46;;;;;;;7.15;2.20;;;;;;;6.71;100.00;102162.75;5009938;28;20056;-83
2022/12/04 01:56:13;;;;;;;7.18;2.00;;;;;;;7.13;100.00;102213.09;5010361;28;20119;-83
2022/12/04 01:58:44;;;;;;;7.78;2.22;;;;;;;6.74;100.00;102162.72;5010790;28;20488;-83
2022/12/04 02:01:11;;;;;;;9.15;2.15;;;;;;;7.07;100.00;102194.03;5011027;28;20104;-83
2022/12/04 02:03:38;;;;;;;6.40;1.92;;;;;;;7.19;100.00;102201.84;5011928;28;20064;-83
2022/12/04 02:06:06;;;;;;;17.25;2.60;;;;;;;7.20;100.00;102209.63;5009682;28;20057;-83
2022/12/04 02:08:34;;;;;;;11.10;2.30;;;;;;;7.19;100.00;102220.94;5010284;28;20635;-83
2022/12/04 02:11:21;;;;;;;7.22;2.33;;;;;;;7.29;100.00;102211.38;5010879;28;20097;-83
2022/12/04 02:14:14;;;;;;;6.95;1.90;;;;;;;7.35;100.00;102202.72;5008423;28;20058;-83
2022/12/04 02:16:46;;;;;;;12.23;2.70;;;;;;;7.32;100.00;102208.78;5007618;28;20487;-83
2022/12/04 02:19:25;;;;;;;11.02;2.00;;;;;;;7.39;100.00;102207.03;5009365;28;20054;-83
2022/12/04 02:21:56;;;;;;;8.15;2.63;;;;;;;7.16;100.00;102204.44;4996975;28;20052;-83
2022/12/04 02:25:00;;;;;;;10.32;1.98;;;;;;;7.22;100.00;102209.63;5005394;28;20439;-83
2022/12/04 02:27:38;;;;;;;9.65;2.28;;;;;;;7.10;100.00;102200.09;4999223;28;20605;-83
2022/12/04 02:30:14;;;;;;;10.40;2.38;;;;;;;7.01;100.00;102192.25;4994260;28;20054;-83
2022/12/04 02:32:57;;;;;;;6.82;1.98;;;;;;;6.91;100.00;102167.97;5011169;28;20100;-83
2022/12/04 02:35:30;;;;;;;8.35;2.42;;;;;;;7.19;100.00;102207.06;5007896;28;20105;-83
2022/12/04 02:38:15;;;;;;;9.27;2.33;;;;;;;7.13;100.00;102196.63;5010812;28;20460;-83
2022/12/04 02:41:11;;;;;;;7.88;2.35;;;;;;;7.46;100.00;102213.97;5011110;28;20436;-83
2022/12/04 02:43:48;;;;;;;11.30;3.10;;;;;;;7.38;100.00;102210.50;5004330;28;20436;-83
2022/12/04 02:46:29;;;;;;;12.10;2.83;;;;;;;7.34;100.00;102224.41;5004996;28;20045;-83
2022/12/04 02:49:00;;;;;;;15.52;3.03;;;;;;;7.21;100.00;102226.16;5006707;28;20050;-83
2022/12/04 02:51:31;;;;;;;10.65;2.83;;;;;;;6.96;100.00;102220.06;5002939;28;20061;-83
2022/12/04 02:54:10;;;;;;;9.55;2.85;;;;;;;6.95;100.00;102223.53;5009997;28;20084;-83
2022/12/04 02:56:41;;;;;;;17.27;3.13;;;;;;;6.97;100.00;102227.84;5010535;28;20057;-83
2022/12/04 02:59:16;;;;;;;11.68;2.55;;;;;;;6.90;100.00;102218.28;5012155;28;20537;-83
2022/12/04 03:01:45;;;;;;;7.03;2.13;;;;;;;6.65;100.00;102201.78;5010603;28;20054;-83
2022/12/04 03:04:16;;;;;;;17.67;2.58;;;;;;;6.67;100.00;102206.97;5005281;28;20459;-83
2022/12/04 03:06:47;;;;;;;12.25;2.40;;;;;;;6.83;100.00;102211.34;5001984;28;21360;-83
2022/12/04 03:09:20;;;;;;;11.30;2.47;;;;;;;6.64;100.00;102176.63;5004313;28;20046;-83
2022/12/04 03:12:13;;;;;;;11.82;2.75;;;;;;;6.82;100.00;102214.84;5001369;28;20050;-83
2022/12/04 03:14:51;;;;;;;10.02;2.33;;;;;;;6.73;100.00;102220.00;5007340;28;20137;-83
2022/12/04 03:17:33;;;;;;;9.43;2.28;;;;;;;6.81;100.00;102216.53;5007999;28;20487;-83
2022/12/04 03:20:08;;;;;;;9.02;2.13;;;;;;;6.81;100.00;102202.66;5001032;28;20101;-83
2022/12/04 03:22:39;;;;;;;9.13;2.55;;;;;;;6.94;100.00;102216.56;5005713;28;20054;-83
2022/12/04 03:25:07;;;;;;;9.77;2.30;;;;;;;6.92;100.00;102220.91;4999862;28;20104;-83
2022/12/04 03:27:56;;;;;;;4.78;1.80;;;;;;;7.10;100.00;102218.34;4997768;28;20120;-83
2022/12/04 03:30:23;;;;;;;6.93;1.75;;;;;;;7.11;100.00;102203.56;5004352;28;20476;-83
2022/12/04 03:33:08;;;;;;;9.48;2.20;;;;;;;6.78;100.00;102179.22;4999835;28;20057;-83
2022/12/04 03:35:43;;;;;;;20.33;4.70;;;;;;;6.94;100.00;102208.75;5000951;28;20057;-83
2022/12/04 03:38:46;;;;;;;12.35;2.35;;;;;;;7.15;100.00;102216.59;5000480;28;20058;-83
2022/12/04 03:41:31;;;;;;;8.77;2.90;;;;;;;6.70;100.00;102212.22;5012200;28;20057;-84
2022/12/04 03:44:09;;;;;;;16.38;3.45;;;;;;;6.84;100.00;102221.78;5005128;28;20088;-83
2022/12/04 03:46:51;;;;;;;13.57;4.63;;;;;;;6.74;100.00;102221.75;5003081;28;20054;-83
2022/12/04 03:49:26;;;;;;;11.75;2.83;;;;;;;6.65;100.00;102225.19;5002562;28;20054;-84
2022/12/04 03:52:24;;;;;;;12.25;3.60;;;;;;;6.66;100.00;102229.56;4998106;28;20444;-84
2022/12/04 03:54:59;;;;;;;8.80;2.72;;;;;;;6.56;100.00;102214.78;5003864;28;20540;-84
2022/12/04 03:57:32;;;;;;;15.68;3.63;;;;;;;6.77;100.00;102225.22;5003631;28;20046;-84
2022/12/04 04:00:11;;;;;;;13.45;2.88;;;;;;;6.64;100.00;102231.28;5004678;28;20107;-84
2022/12/04 04:02:43;;;;;;;14.70;2.47;;;;;;;6.65;100.00;102225.19;4998199;28;20488;-84
2022/12/04 04:05:12;;;;;;;11.15;2.50;;;;;;;6.80;100.00;102216.56;5000189;28;20054;-84
2022/12/04 04:07:47;;;;;;;10.45;3.00;;;;;;;6.81;100.00;102216.53;5001672;28;20062;-84
2022/12/04 04:10:17;;;;;;;12.55;2.78;;;;;;;6.73;100.00;102213.09;4998167;28;20129;-84
2022/12/04 04:24:27;;;;;;;9.65;2.30;;;;;;;7.09;100.00;102211.38;4998558;28;20054;-83
2022/12/04 04:26:57;;;;;;;9.25;3.10;;;;;;;6.75;100.00;102194.88;5006349;28;20048;-84
2022/12/04 04:29:25;;;;;;;10.05;2.13;;;;;;;7.08;100.00;102224.41;5016017;28;20050;-84
2022/12/04 04:32:10;;;;;;;9.05;2.50;;;;;;;6.95;100.00;102224.38;5002818;28;20050;-84
2022/12/04 04:34:59;;;;;;;11.85;2.75;;;;;;;6.88;100.00;102225.25;5016721;28;20066;-84
2022/12/04 04:37:44;;;;;;;8.32;2.40;;;;;;;7.09;100.00;102227.00;5001286;28;20045;-84
2022/12/04 04:40:23;;;;;;;9.65;2.80;;;;;;;6.79;100.00;102207.00;5001692;28;20054;-83
2022/12/04 04:43:01;;;;;;;8.45;2.15;;;;;;;6.80;100.00;102225.25;5004508;28;20100;-84
2022/12/04 04:45:40;;;;;;;12.48;2.20;;;;;;;6.91;100.00;102213.97;5005220;28;20049;-83
2022/12/04 04:48:10;;;;;;;5.07;1.80;;;;;;;6.90;100.00;102225.25;4998134;28;20109;-84
2022/12/04 04:50:38;;;;;;;13.07;3.63;;;;;;;6.58;100.00;102179.19;5000214;28;20088;-83
2022/12/04 04:53:09;;;;;;;13.88;2.40;;;;;;;6.83;100.00;102225.25;5002769;28;20510;-84
2022/12/04 04:55:37;;;;;;;5.70;2.00;;;;;;;6.93;100.00;102233.94;4994106;28;20098;-84
2022/12/04 04:58:13;;;;;;;10.65;2.65;;;;;;;6.59;100.00;102218.25;4997667;28;20074;-84
2022/12/04 05:00:49;;;;;;;13.73;2.30;;;;;;;6.61;100.00;102223.47;5004451;28;20054;-84
2022/12/04 05:03:16;;;;;;;8.90;2.25;;;;;;;6.50;100.00;102218.22;5003020;28;20075;-83
2022/12/04 05:05:43;;;;;;;8.10;1.88;;;;;;;6.81;100.00;102231.31;4997703;28;20136;-84
2022/12/04 05:08:09;;;;;;;5.70;1.75;;;;;;;6.72;100.00;102236.50;5001121;28;20101;-84
2022/12/04 05:10:36;;;;;;;8.68;2.20;;;;;;;6.74;100.00;102220.00;4999503;28;20049;-84
2022/12/04 05:13:03;;;;;;;8.48;1.95;;;;;;;6.68;100.00;102226.97;5001146;28;20112;-84
2022/12/04 05:15:30;;;;;;;8.07;1.88;;;;;;;6.61;100.00;102203.50;5001221;28;20046;-84
2022/12/04 05:17:56;;;;;;;13.80;2.03;;;;;;;6.93;100.00;102228.72;5002754;28;20054;-85
2022/12/04 05:20:23;;;;;;;7.50;2.47;;;;;;;6.80;100.00;102206.16;5000384;28;20108;-85
2022/12/04 05:22:50;;;;;;;11.93;2.78;;;;;;;6.71;100.00;102212.22;4997786;28;20050;-84
2022/12/04 05:25:17;;;;;;;7.85;1.90;;;;;;;6.52;100.00;102187.00;5001788;28;20049;-85
2022/12/04 05:27:43;;;;;;;10.23;1.88;;;;;;;6.86;100.00;102226.97;4999217;28;20065;-85
2022/12/04 05:30:10;;;;;;;7.88;1.88;;;;;;;6.91;100.00;102221.78;5000369;28;20111;-85
2022/12/04 05:32:37;;;;;;;7.68;1.90;;;;;;;6.97;100.00;102235.66;5002244;28;20479;-85
2022/12/04 05:35:05;;;;;;;11.90;2.35;;;;;;;6.97;100.00;102235.66;5001692;28;20101;-85
2022/12/04 05:37:38;;;;;;;10.80;2.30;;;;;;;6.97;100.00;102227.00;5002521;28;20053;-84
2022/12/04 05:40:06;;;;;;;10.50;2.03;;;;;;;7.11;100.00;102235.69;5000034;28;20104;-84
2022/12/04 05:42:33;;;;;;;8.23;1.75;;;;;;;7.13;100.00;102228.72;5003827;28;20045;-84
2022/12/04 05:45:00;;;;;;;9.25;2.13;;;;;;;7.02;100.00;102220.06;4997761;28;20058;-84
2022/12/04 05:47:29;;;;;;;10.00;1.80;;;;;;;7.10;100.00;102233.06;4999627;28;20052;-84
2022/12/04 05:49:57;;;;;;;9.43;2.00;;;;;;;7.02;100.00;102210.50;5003897;28;20046;-84
2022/12/04 05:52:24;;;;;;;8.63;2.10;;;;;;;6.61;100.00;102255.56;5000758;28;20104;-84
2022/12/04 05:54:50;;;;;;;8.73;1.98;;;;;;;6.52;100.00;102262.47;5032273;28;20100;-85
2022/12/04 05:57:17;;;;;;;7.38;1.90;;;;;;;6.68;100.00;102234.75;5000398;28;20049;-85
2022/12/04 05:59:44;;;;;;;7.55;1.75;;;;;;;6.75;100.00;102233.91;4999861;28;20057;-86
2022/12/04 06:02:11;;;;;;;11.23;2.00;;;;;;;6.60;100.00;102222.56;4996821;28;20407;-86
2022/12/04 06:04:37;;;;;;;9.10;1.92;;;;;;;6.56;100.00;102215.63;5006466;28;20124;-85
2022/12/04 06:07:04;;;;;;;6.40;1.80;;;;;;;6.81;100.00;102234.78;5003211;28;20053;-85
2022/12/04 06:09:31;;;;;;;8.93;1.70;;;;;;;6.85;100.00;102235.66;5008865;28;20100;-85
2022/12/04 06:11:58;;;;;;;10.68;2.83;;;;;;;6.59;100.00;102233.88;4999868;28;20129;-85
2022/12/04 06:14:25;;;;;;;6.70;2.00;;;;;;;6.60;100.00;102224.31;4999616;28;20051;-84
2022/12/04 06:16:52;;;;;;;5.20;2.00;;;;;;;6.74;100.00;102237.38;5002363;28;20054;-84
2022/12/04 06:19:20;;;;;;;8.07;2.33;;;;;;;6.62;100.00;102233.00;5002122;28;20093;-85
2022/12/04 06:21:49;;;;;;;5.88;1.50;;;;;;;6.36;100.00;102188.69;5003513;28;20100;-84
2022/12/04 06:24:22;;;;;;;6.97;1.90;;;;;;;6.83;100.00;102246.09;4998550;28;20046;-84
2022/12/04 06:26:50;;;;;;;6.35;1.95;;;;;;;6.79;100.00;102233.03;5010012;28;20050;-84
2022/12/04 06:29:36;;;;;;;7.82;1.65;;;;;;;6.90;100.00;102252.16;4997969;28;20144;-84
2022/12/04 06:32:03;;;;;;;6.20;1.65;;;;;;;6.93;100.00;102230.47;5003602;28;20053;-84
2022/12/04 06:34:31;;;;;;;13.18;2.72;;;;;;;6.52;100.00;102200.03;5002138;28;20065;-84
2022/12/04 06:36:59;;;;;;;14.02;2.00;;;;;;;7.02;100.00;102244.34;5005501;28;20050;-84
2022/12/04 06:39:26;;;;;;;10.75;2.20;;;;;;;6.90;100.00;102259.09;5007414;28;20097;-84
2022/12/04 06:41:52;;;;;;;9.35;1.67;;;;;;;6.80;100.00;102258.22;5004120;28;20096;-85
2022/12/04 06:44:19;;;;;;;9.77;1.92;;;;;;;6.60;100.00;102246.00;5011744;28;20053;-84
2022/12/04 06:46:48;;;;;;;7.07;1.73;;;;;;;6.55;100.00;102223.44;5014608;28;20049;-84
2022/12/04 06:49:15;;;;;;;14.23;1.65;;;;;;;6.81;100.00;102257.34;5010340;28;20065;-84
2022/12/04 06:51:42;;;;;;;5.95;1.45;;;;;;;6.76;100.00;102238.25;5010500;28;20045;-84
2022/12/04 06:54:09;;;;;;;4.30;1.95;;;;;;;6.95;100.00;102258.25;5004280;28;20136;-84
2022/12/04 06:56:36;;;;;;;11.90;2.20;;;;;;;6.81;100.00;102228.69;5002831;28;20058;-84
2022/12/04 06:59:04;;;;;;;6.88;2.45;;;;;;;7.14;100.00;102253.94;5004645;28;20117;-84
2022/12/04 07:01:33;;;;;;;9.90;2.42;;;;;;;6.78;100.00;102241.72;5003566;28;20045;-84
2022/12/04 07:04:02;;;;;;;8.90;2.95;;;;;;;7.10;100.00;102273.03;5025846;28;20050;-83
2022/12/04 07:06:35;;;;;;;8.82;1.98;;;;;;;6.93;100.00;102279.94;5028056;28;20046;-87
2022/12/04 07:09:17;;;;;;;4.97;1.67;;;;;;;6.23;100.00;102239.78;5027325;28;20184;-88
2022/12/04 07:12:00;;;;;;;9.25;2.10;;;;;;;5.87;100.00;102204.91;5025664;28;20045;-85
2022/12/04 07:14:43;;;;;;;5.22;1.50;;;;;;;6.52;100.00;102249.47;5015947;28;20054;-85
2022/12/04 07:17:10;;;;;;;7.75;2.35;;;;;;;6.44;100.00;102229.47;5032400;28;20056;-84
2022/12/04 07:19:38;;;;;;;11.80;1.90;;;;;;;6.74;100.00;102246.03;5025748;28;20054;-84
2022/12/04 07:22:07;;;;;;;8.32;2.00;;;;;;;6.67;100.00;102228.66;5032072;28;20064;-84
2022/12/04 07:24:36;;;;;;;14.77;2.63;;;;;;;6.67;100.00;102267.72;5026055;28;20045;-84
2022/12/04 07:27:05;;;;;;;11.23;2.78;;;;;;;6.61;100.00;102252.94;5016366;28;20045;-85
2022/12/04 07:29:32;;;;;;;12.00;3.95;;;;;;;6.72;100.00;102233.91;5021878;28;20053;-85
2022/12/04 07:32:02;;;;;;;8.57;3.05;;;;;;;6.41;100.00;102192.16;5021702;28;20110;-81
2022/12/04 07:34:43;;;;;;;6.70;2.15;;;;;;;6.96;100.00;102251.31;5018538;28;20137;-86
2022/12/04 07:48:01;;;;;;;7.93;2.47;;;;;;;6.82;100.00;102207.03;5158482;27;20364;-83
2022/12/04 07:50:28;;;;;;;12.02;3.05;;;;;;;6.93;100.00;102222.66;5141714;27;20045;-84
2022/12/04 07:52:56;;;;;;;8.10;2.25;;;;;;;6.80;100.00;102194.00;5144631;27;20053;-83
2022/12/04 07:55:25;;;;;;;6.65;1.85;;;;;;;6.86;100.00;102200.94;5154468;27;20131;-83
2022/12/04 07:57:55;;;;;;;12.38;2.65;;;;;;;6.92;100.00;102273.84;5145776;27;20047;-84
2022/12/04 08:00:30;;;;;;;9.90;2.47;;;;;;;6.91;100.00;102273.88;5153903;27;20480;-82
2022/12/04 08:02:58;;;;;;;8.07;2.20;;;;;;;6.73;100.00;102248.63;5140230;27;20039;-83
2022/12/04 08:05:26;;;;;;;6.70;2.08;;;;;;;6.58;100.00;102237.31;5137318;27;20051;-83
2022/12/04 08:07:54;;;;;;;8.50;2.22;;;;;;;6.62;100.00;102241.69;5159819;27;20055;-83
2022/12/04 08:10:21;;;;;;;11.77;2.40;;;;;;;6.60;100.00;102230.38;5138327;27;20043;-83
2022/12/04 08:12:48;;;;;;;9.30;1.58;;;;;;;6.77;100.00;102247.78;5130342;27;20066;-82
2022/12/04 08:15:14;;;;;;;8.18;1.98;;;;;;;7.11;100.00;102294.72;5136425;27;20043;-83
2022/12/04 08:17:41;;;;;;;6.82;1.90;;;;;;;6.72;100.00;102233.91;5132552;27;20389;-83
2022/12/04 08:20:08;;;;;;;8.20;1.95;;;;;;;6.83;100.00;102248.69;5132562;27;20058;-83
2022/12/04 08:22:35;;;;;;;10.40;2.10;;;;;;;6.86;100.00;102239.13;5159262;27;20449;-83
2022/12/04 08:25:02;;;;;;;8.38;2.75;;;;;;;6.76;100.00;102239.09;5152041;27;20051;-83
2022/12/04 08:27:29;;;;;;;7.72;2.38;;;;;;;6.69;100.00;102239.09;5153978;27;20123;-82
2022/12/04 08:29:56;;;;;;;7.28;2.10;;;;;;;6.72;100.00;102262.53;5148084;27;20047;-83
2022/12/04 08:32:23;;;;;;;12.45;2.80;;;;;;;6.33;100.00;102230.31;5150063;27;20043;-83
2022/12/04 08:34:50;;;;;;;10.55;2.17;;;;;;;6.25;100.00;102238.94;5140104;27;20054;-84
2022/12/04 08:37:21;;;;;;;12.13;2.55;;;;;;;6.49;100.00;102289.34;5162797;27;20019;-85
2022/12/04 08:39:52;;;;;;;7.28;2.35;;;;;;;6.36;100.00;102248.53;5162192;27;20042;-85
2022/12/04 08:42:19;;;;;;;9.88;3.13;;;;;;;6.42;100.00;102244.19;5139958;27;20107;-85
2022/12/04 08:44:47;;;;;;;7.57;2.63;;;;;;;6.34;100.00;102224.22;5133048;27;20081;-85
2022/12/04 08:47:15;;;;;;;8.68;2.22;;;;;;;6.81;100.00;102302.47;5135684;27;20065;-85
2022/12/04 08:49:45;;;;;;;11.07;2.78;;;;;;;6.75;100.00;102258.19;5145092;27;20510;-85
2022/12/04 08:52:16;;;;;;;9.30;2.47;;;;;;;6.94;100.00;102279.97;5126245;27;20151;-82
2022/12/04 08:54:43;;;;;;;11.85;2.50;;;;;;;6.89;100.00;102266.06;5138127;27;20047;-84
2022/12/04 08:57:12;;;;;;;11.82;2.47;;;;;;;7.04;100.00;102292.09;5137895;27;20035;-84
2022/12/04 08:59:48;;;;;;;14.43;3.20;;;;;;;6.63;100.00;102251.22;5115713;28;20043;-83
2022/12/04 09:02:16;;;;;;;13.35;3.40;;;;;;;6.70;100.00;102241.69;5147111;27;20380;-85
2022/12/04 09:04:43;;;;;;;13.73;3.45;;;;;;;7.06;100.00;102254.78;5123982;27;20062;-84
2022/12/04 09:07:13;;;;;;;10.55;2.75;;;;;;;7.06;100.00;102268.66;5142672;27;20427;-84
2022/12/04 09:09:44;;;;;;;12.07;2.88;;;;;;;7.30;100.00;102295.63;5125919;27;20128;-84
2022/12/04 09:12:16;;;;;;;7.07;2.40;;;;;;;7.27;100.00;102288.66;5120632;27;20048;-84
2022/12/04 09:14:43;;;;;;;11.40;3.08;;;;;;;6.85;100.00;102235.66;5141021;27;20054;-84
2022/12/04 09:28:03;;;;;;;7.35;2.40;;;;;;;7.26;100.00;102318.22;5133969;27;20387;-84
2022/12/04 09:30:31;;;;;;;9.00;2.78;;;;;;;7.22;100.00;102280.88;5117297;28;20051;-83
2022/12/04 09:32:59;;;;;;;13.57;4.10;;;;;;;6.99;100.00;102249.59;5119419;28;20054;-84
2022/12/04 09:35:28;;;;;;;15.45;3.35;;;;;;;7.39;100.00;102316.50;5117536;28;20064;-83
2022/12/04 09:37:59;;;;;;;11.38;2.90;;;;;;;7.15;100.00;102284.34;5118489;28;20046;-84
2022/12/04 09:40:41;;;;;;;13.30;3.08;;;;;;;7.09;100.00;102265.22;5106458;28;20059;-85
2022/12/04 09:43:33;;;;;;;19.02;3.58;;;;;;;7.49;100.00;102335.59;5111459;28;20051;-81
2022/12/04 09:46:08;;;;;;;13.73;4.88;;;;;;;7.30;100.00;102312.13;5114711;28;20052;-84
2022/12/04 09:48:40;;;;;;;7.50;2.40;;;;;;;7.37;100.00;102323.44;5114114;28;20093;-84
2022/12/04 09:51:17;;;;;;;13.80;3.38;;;;;;;7.23;100.00;102292.16;5116515;28;20044;-85
2022/12/04 09:53:51;;;;;;;11.85;2.85;;;;;;;7.35;100.00;102301.72;5109477;28;20083;-86
2022/12/04 09:56:22;;;;;;;10.98;2.67;;;;;;;7.49;100.00;102326.06;5107588;28;20588;-84
2022/12/04 09:58:55;;;;;;;9.45;2.70;;;;;;;7.57;100.00;102345.16;5116410;28;20055;-83
2022/12/04 10:01:33;;;;;;;14.73;2.38;;;;;;;7.71;100.00;102342.56;5120350;28;20048;-83
2022/12/04 10:04:01;;;;;;;9.57;2.28;;;;;;;7.38;100.00;102265.22;5118143;28;20377;-85
2022/12/04 10:06:44;;;;;;;10.25;2.85;;;;;;;7.67;100.00;102333.00;5116458;28;20039;-84
2022/12/04 10:09:27;;;;;;;8.60;2.75;;;;;;;7.81;100.00;102338.22;5119307;28;20071;-84
2022/12/04 10:12:27;;;;;;;8.48;2.50;;;;;;;7.74;100.00;102331.28;5109114;28;20060;-85
2022/12/04 10:14:55;;;;;;;14.02;2.97;;;;;;;7.81;100.00;102343.44;5100173;28;20054;-85
2022/12/04 10:18:03;;;;;;;16.10;3.60;;;;;;;7.74;100.00;102342.56;5118482;28;20115;-86
2022/12/04 10:21:04;;;;;;;11.80;3.40;;;;;;;7.56;100.00;102304.34;5118260;28;20043;-84
2022/12/04 10:24:23;;;;;;;18.77;3.58;;;;;;;7.92;100.00;102333.00;5115810;28;20067;-85
2022/12/04 10:27:19;;;;;;;15.30;4.00;;;;;;;7.76;100.00;102334.75;5035370;28;20077;-85
2022/12/04 10:30:09;;;;;;;13.93;3.35;;;;;;;7.84;100.00;102339.94;5001184;28;20058;-85
2022/12/04 10:33:04;;;;;;;9.50;3.25;;;;;;;7.58;100.00;102331.28;5103144;28;20059;-84
2022/12/04 10:35:47;;;;;;;12.88;4.35;;;;;;;7.51;100.00;102315.63;5131501;27;20054;-87
2022/12/04 10:38:50;;;;;;;13.55;3.42;;;;;;;7.51;100.00;102341.69;5108144;28;20052;-85
2022/12/04 10:41:42;;;;;;;12.73;3.08;;;;;;;7.01;100.00;102275.59;5121188;28;20048;-84
2022/12/04 10:44:25;;;;;;;12.85;3.03;;;;;;;7.11;100.00;102266.09;5098954;28;20043;-85
2022/12/04 10:47:13;;;;;;;9.02;2.28;;;;;;;7.35;100.00;102294.78;5108160;28;20040;-85
2022/12/04 10:50:04;;;;;;;12.98;3.30;;;;;;;7.36;100.00;102348.59;5110658;28;20103;-86
2022/12/04 10:52:48;;;;;;;11.55;3.65;;;;;;;7.44;100.00;102346.03;5110756;28;20074;-84
2022/12/04 10:55:37;;;;;;;8.00;2.60;;;;;;;7.21;100.00;102343.38;5100855;28;20116;-86
2022/12/04 10:58:19;;;;;;;9.50;2.70;;;;;;;6.75;100.00;102241.72;5113445;28;20047;-87
2022/12/04 11:01:13;;;;;;;8.77;2.88;;;;;;;7.11;100.00;102279.09;5091446;28;20052;-86
2022/12/04 11:04:24;;;;;;;9.27;2.70;;;;;;;7.65;100.00;102334.75;5110899;28;20059;-85
2022/12/04 11:07:29;;;;;;;8.75;2.90;;;;;;;7.83;100.00;102343.44;5112542;28;20051;-83
2022/12/04 11:10:38;;;;;;;10.13;2.70;;;;;;;7.63;100.00;102353.84;5110954;28;20087;-86
2022/12/04 11:13:21;;;;;;;11.63;3.13;;;;;;;7.63;100.00;102322.56;5114309;28;20045;-87
2022/12/04 11:16:05;;;;;;;13.07;3.20;;;;;;;7.34;100.00;102305.19;5109569;28;20375;-86
2022/12/04 11:18:51;;;;;;;;;;;;;;;7.75;100.00;102344.28;5112227;28;20036;-85
2022/12/04 11:21:31;;;;;;;17.42;3.38;;;;;;;7.22;100.00;102265.25;5111151;28;19920;-87
2022/12/04 11:24:21;;;;;;;10.73;2.95;;;;;;;7.59;100.00;102327.78;5102576;28;20069;-86
2022/12/04 11:27:09;;;;;;;9.05;3.28;;;;;;;7.70;100.00;102326.91;5126648;27;20048;-86
2022/12/04 11:29:44;;;;;;;11.50;2.95;;;;;;;7.82;100.00;102337.34;5112770;28;20047;-84
2022/12/04 11:32:30;;;;;;;10.63;3.28;;;;;;;7.89;100.00;102319.97;5100664;28;20054;-85
2022/12/04 11:35:10;;;;;;;11.38;3.13;;;;;;;7.93;100.00;102329.50;5101662;28;20053;-89
2022/12/04 11:38:16;;;;;;;12.20;2.45;;;;;;;7.56;100.00;102274.78;5107031;28;20044;-86
2022/12/04 11:40:54;;;;;;;9.40;2.40;;;;;;;7.69;100.00;102279.13;5106517;28;20120;-85
2022/12/04 11:43:28;;;;;;;11.50;2.95;;;;;;;7.98;100.00;102336.47;5132774;27;20044;-84
2022/12/04 11:46:01;;;;;;;13.68;3.90;;;;;;;7.77;100.00;102315.59;5102562;28;20047;-84
2022/12/04 11:48:43;;;;;;;10.02;3.00;;;;;;;7.59;100.00;102306.91;5102583;28;20059;-82
2022/12/04 11:51:23;;;;;;;11.68;3.65;;;;;;;7.80;100.00;102345.16;5084426;28;20043;-85
2022/12/04 11:54:06;;;;;;;13.50;3.38;;;;;;;7.45;100.00;102323.44;5090590;28;20052;-84
2022/12/04 11:56:57;;;;;;;14.52;3.40;;;;;;;7.60;100.00;102332.13;5101948;28;20051;-83
2022/12/04 12:00:02;;;;;;;12.98;3.33;;;;;;;7.49;100.00;102339.09;5101608;28;20101;-84
2022/12/04 12:03:11;;;;;;;8.60;2.58;;;;;;;7.75;100.00;102335.59;5097603;28;20411;-83
2022/12/04 12:05:52;;;;;;;9.40;2.33;;;;;;;7.59;100.00;102301.69;5092874;28;20048;-84
2022/12/04 12:08:44;;;;;;;14.60;2.70;;;;;;;7.67;100.00;102291.28;5099897;28;20485;-84
2022/12/04 12:11:29;;;;;;;7.28;2.15;;;;;;;8.00;100.00;102328.63;5092465;28;20062;-85
2022/12/04 12:14:07;;;;;;;8.82;2.28;;;;;;;7.97;100.00;102320.81;5098837;28;20074;-84
2022/12/04 12:16:56;;;;;;;12.52;3.22;;;;;;;7.99;100.00;102334.72;5113573;27;20473;-84
2022/12/04 12:20:03;;;;;;;16.45;4.80;;;;;;;7.94;100.00;102336.47;5107108;28;20052;-84
2022/12/04 12:22:50;;;;;;;14.60;4.68;;;;;;;8.01;100.00;102330.38;5119813;27;20055;-84
2022/12/04 12:25:25;;;;;;;14.13;3.28;;;;;;;7.68;100.00;102337.34;5098756;28;20048;-85
2022/12/04 12:28:14;;;;;;;11.10;2.80;;;;;;;7.82;100.00;102346.91;5098190;28;20059;-84
2022/12/04 12:30:51;;;;;;;10.48;2.80;;;;;;;7.58;100.00;102343.44;5114753;28;20047;-83